sensor_id;sensor_type;location;lat;lon;timestamp;pressure;altitude;pressure_sealevel;temperature;humidity
65997;BME280;52765;52.258;21.052;2023-01-01T00:00:45;100401.13;;;13.62;90.54
65997;BME280;52765;52.258;21.052;2023-01-01T00:03:13;100417.19;;;13.64;90.83
65997;BME280;52765;52.258;21.052;2023-01-01T00:05:39;100410.06;;;13.63;90.91
65997;BME280;52765;52.258;21.052;2023-01-01T00:08:06;100416.66;;;13.60;90.90
65997;BME280;52765;52.258;21.052;2023-01-01T00:10:32;100424.13;;;13.58;91.23
65997;BME280;52765;52.258;21.052;2023-01-01T00:12:58;100424.13;;;13.58;90.98
65997;BME280;52765;52.258;21.052;2023-01-01T00:15:24;100409.59;;;13.59;91.30
65997;BME280;52765;52.258;21.052;2023-01-01T00:17:50;100418.53;;;13.60;90.59
65997;BME280;52765;52.258;21.052;2023-01-01T00:20:16;100414.81;;;13.61;90.70
65997;BME280;52765;52.258;21.052;2023-01-01T00:22:42;100410.91;;;13.63;90.71
65997;BME280;52765;52.258;21.052;2023-01-01T00:25:07;100407.53;;;13.61;90.40
65997;BME280;52765;52.258;21.052;2023-01-01T00:27:35;100411.78;;;13.64;90.44
65997;BME280;52765;52.258;21.052;2023-01-01T00:30:00;100413.94;;;13.68;89.93
65997;BME280;52765;52.258;21.052;2023-01-01T00:32:26;100411.41;;;13.67;89.91
65997;BME280;52765;52.258;21.052;2023-01-01T00:34:51;100411.22;;;13.68;89.81
65997;BME280;52765;52.258;21.052;2023-01-01T00:37:17;100409.38;;;13.69;89.93
65997;BME280;52765;52.258;21.052;2023-01-01T00:39:43;100420.03;;;13.71;89.78
65997;BME280;52765;52.258;21.052;2023-01-01T00:42:08;100424.41;;;13.72;89.86
65997;BME280;52765;52.258;21.052;2023-01-01T00:44:34;100419.00;;;13.72;89.82
65997;BME280;52765;52.258;21.052;2023-01-01T00:46:59;100415.13;;;13.74;89.45
65997;BME280;52765;52.258;21.052;2023-01-01T00:49:25;100417.09;;;13.80;89.11
65997;BME280;52765;52.258;21.052;2023-01-01T00:51:50;100410.00;;;13.79;88.67
65997;BME280;52765;52.258;21.052;2023-01-01T00:54:16;100407.66;;;13.76;88.85
65997;BME280;52765;52.258;21.052;2023-01-01T00:56:41;100414.75;;;13.77;88.76
65997;BME280;52765;52.258;21.052;2023-01-01T00:59:07;100427.91;;;13.80;88.35
65997;BME280;52765;52.258;21.052;2023-01-01T01:01:32;100406.44;;;13.79;88.48
65997;BME280;52765;52.258;21.052;2023-01-01T01:03:59;100413.53;;;13.80;88.34
65997;BME280;52765;52.258;21.052;2023-01-01T01:06:24;100406.44;;;13.79;88.21
65997;BME280;52765;52.258;21.052;2023-01-01T01:08:50;100409.34;;;13.77;88.07
65997;BME280;52765;52.258;21.052;2023-01-01T01:11:18;100430.47;;;13.82;87.89
65997;BME280;52765;52.258;21.052;2023-01-01T01:13:45;100419.28;;;13.85;87.69
65997;BME280;52765;52.258;21.052;2023-01-01T01:16:22;100419.75;;;13.88;87.45
65997;BME280;52765;52.258;21.052;2023-01-01T01:18:53;100420.44;;;13.91;87.11
65997;BME280;52765;52.258;21.052;2023-01-01T01:21:20;100409.28;;;13.85;87.18
65997;BME280;52765;52.258;21.052;2023-01-01T01:23:47;100428.22;;;13.85;87.10
65997;BME280;52765;52.258;21.052;2023-01-01T01:26:15;100426.91;;;13.81;86.93
65997;BME280;52765;52.258;21.052;2023-01-01T01:28:42;100429.94;;;13.86;86.66
65997;BME280;52765;52.258;21.052;2023-01-01T01:31:10;100432.47;;;13.88;86.60
65997;BME280;52765;52.258;21.052;2023-01-01T01:33:36;100431.47;;;13.89;86.42
65997;BME280;52765;52.258;21.052;2023-01-01T01:36:03;100432.47;;;13.88;86.35
65997;BME280;52765;52.258;21.052;2023-01-01T01:38:29;100427.53;;;13.92;85.74
65997;BME280;52765;52.258;21.052;2023-01-01T01:40:55;100431.06;;;13.92;85.73
65997;BME280;52765;52.258;21.052;2023-01-01T01:43:21;100418.22;;;13.94;85.00
65997;BME280;52765;52.258;21.052;2023-01-01T01:45:47;100420.75;;;13.96;85.20
65997;BME280;52765;52.258;21.052;2023-01-01T01:48:13;100422.59;;;13.95;84.89
65997;BME280;52765;52.258;21.052;2023-01-01T01:50:40;100410.09;;;13.94;85.24
65997;BME280;52765;52.258;21.052;2023-01-01T01:53:12;100422.56;;;14.03;84.41
65997;BME280;52765;52.258;21.052;2023-01-01T01:55:45;100403.78;;;14.02;84.34
65997;BME280;52765;52.258;21.052;2023-01-01T01:58:13;100423.59;;;14.02;83.92
65997;BME280;52765;52.258;21.052;2023-01-01T02:00:39;100417.84;;;14.05;83.80
65997;BME280;52765;52.258;21.052;2023-01-01T02:03:07;100410.19;;;14.09;83.35
65997;BME280;52765;52.258;21.052;2023-01-01T02:05:33;100426.44;;;14.09;83.30
65997;BME280;52765;52.258;21.052;2023-01-01T02:08:02;100413.72;;;14.10;83.01
65997;BME280;52765;52.258;21.052;2023-01-01T02:10:28;100407.66;;;14.07;82.98
65997;BME280;52765;52.258;21.052;2023-01-01T02:12:54;100397.66;;;14.08;82.49
65997;BME280;52765;52.258;21.052;2023-01-01T02:15:21;100410.19;;;14.09;82.23
65997;BME280;52765;52.258;21.052;2023-01-01T02:18:02;100415.75;;;14.16;82.42
65997;BME280;52765;52.258;21.052;2023-01-01T02:28:43;100409.84;;;14.12;81.75
65997;BME280;52765;52.258;21.052;2023-01-01T02:31:15;100422.53;;;14.12;81.76
65997;BME280;52765;52.258;21.052;2023-01-01T02:33:44;100424.38;;;14.11;81.17
65997;BME280;52765;52.258;21.052;2023-01-01T02:36:10;100414.03;;;14.15;81.04
65997;BME280;52765;52.258;21.052;2023-01-01T02:38:40;100408.09;;;14.19;80.33
65997;BME280;52765;52.258;21.052;2023-01-01T02:41:11;100408.75;;;14.21;80.24
65997;BME280;52765;52.258;21.052;2023-01-01T02:43:38;100406.22;;;14.20;80.03
65997;BME280;52765;52.258;21.052;2023-01-01T02:46:05;100391.66;;;14.21;80.02
65997;BME280;52765;52.258;21.052;2023-01-01T02:48:42;100398.22;;;14.27;79.79
65997;BME280;52765;52.258;21.052;2023-01-01T02:54:42;100397.72;;;14.23;79.64
65997;BME280;52765;52.258;21.052;2023-01-01T02:57:18;100397.56;;;14.24;79.14
65997;BME280;52765;52.258;21.052;2023-01-01T03:00:13;100399.25;;;14.25;78.90
65997;BME280;52765;52.258;21.052;2023-01-01T03:08:12;100395.50;;;14.27;78.56
65997;BME280;52765;52.258;21.052;2023-01-01T03:16:09;100379.72;;;14.30;77.93
65997;BME280;52765;52.258;21.052;2023-01-01T03:18:58;100390.75;;;14.29;77.86
65997;BME280;52765;52.258;21.052;2023-01-01T03:24:33;100372.28;;;14.32;76.83
65997;BME280;52765;52.258;21.052;2023-01-01T03:27:21;100384.06;;;14.39;76.54
65997;BME280;52765;52.258;21.052;2023-01-01T03:29:54;100392.56;;;14.36;76.40
65997;BME280;52765;52.258;21.052;2023-01-01T03:32:31;100383.59;;;14.36;76.37
65997;BME280;52765;52.258;21.052;2023-01-01T03:35:22;100393.03;;;14.40;75.64
65997;BME280;52765;52.258;21.052;2023-01-01T03:37:53;100406.94;;;14.37;75.02
65997;BME280;52765;52.258;21.052;2023-01-01T03:40:20;100399.28;;;14.40;74.89
65997;BME280;52765;52.258;21.052;2023-01-01T03:42:52;100418.41;;;14.47;73.91
65997;BME280;52765;52.258;21.052;2023-01-01T03:45:27;100423.25;;;14.52;73.87
65997;BME280;52765;52.258;21.052;2023-01-01T03:47:54;100433.47;;;14.50;73.29
65997;BME280;52765;52.258;21.052;2023-01-01T03:50:26;100433.75;;;14.55;73.02
65997;BME280;52765;52.258;21.052;2023-01-01T03:53:20;100456.47;;;14.54;72.77
65997;BME280;52765;52.258;21.052;2023-01-01T03:56:04;100428.34;;;14.55;72.32
65997;BME280;52765;52.258;21.052;2023-01-01T03:58:39;100433.09;;;14.53;72.28
65997;BME280;52765;52.258;21.052;2023-01-01T04:01:09;100427.13;;;14.57;71.86
65997;BME280;52765;52.258;21.052;2023-01-01T04:03:37;100440.38;;;14.60;71.71
65997;BME280;52765;52.258;21.052;2023-01-01T04:06:05;100422.25;;;14.53;71.40
65997;BME280;52765;52.258;21.052;2023-01-01T04:08:32;100423.09;;;14.53;71.05
65997;BME280;52765;52.258;21.052;2023-01-01T04:11:00;100428.34;;;14.55;71.08
65997;BME280;52765;52.258;21.052;2023-01-01T04:13:48;100431.88;;;14.55;71.02
65997;BME280;52765;52.258;21.052;2023-01-01T04:16:14;100437.50;;;14.54;71.07
65997;BME280;52765;52.258;21.052;2023-01-01T04:18:40;100443.94;;;14.53;71.12
65997;BME280;52765;52.258;21.052;2023-01-01T04:21:05;100450.19;;;14.53;70.92
65997;BME280;52765;52.258;21.052;2023-01-01T04:23:31;100436.63;;;14.53;70.82
65997;BME280;52765;52.258;21.052;2023-01-01T04:25:56;100463.56;;;14.55;70.51
65997;BME280;52765;52.258;21.052;2023-01-01T04:28:22;100442.06;;;14.53;70.38
65997;BME280;52765;52.258;21.052;2023-01-01T04:30:48;100449.34;;;14.53;70.49
65997;BME280;52765;52.258;21.052;2023-01-01T04:33:13;100460.19;;;14.53;70.23
65997;BME280;52765;52.258;21.052;2023-01-01T04:35:39;100469.81;;;14.55;69.94
65997;BME280;52765;52.258;21.052;2023-01-01T04:38:04;100453.56;;;14.55;69.78
65997;BME280;52765;52.258;21.052;2023-01-01T04:40:30;100455.91;;;14.58;69.69
65997;BME280;52765;52.258;21.052;2023-01-01T04:42:56;100468.81;;;14.56;69.06
65997;BME280;52765;52.258;21.052;2023-01-01T04:45:21;100456.09;;;14.57;69.03
65997;BME280;52765;52.258;21.052;2023-01-01T04:47:47;100455.25;;;14.56;69.10
65997;BME280;52765;52.258;21.052;2023-01-01T04:50:12;100472.03;;;14.60;68.95
65997;BME280;52765;52.258;21.052;2023-01-01T04:52:38;100455.44;;;14.55;68.84
65997;BME280;52765;52.258;21.052;2023-01-01T04:55:03;100454.25;;;14.57;68.64
65997;BME280;52765;52.258;21.052;2023-01-01T04:57:29;100461.50;;;14.57;68.66
65997;BME280;52765;52.258;21.052;2023-01-01T04:59:55;100458.81;;;14.57;68.73
65997;BME280;52765;52.258;21.052;2023-01-01T05:02:21;100462.56;;;14.56;68.31
65997;BME280;52765;52.258;21.052;2023-01-01T05:04:46;100469.31;;;14.60;68.04
65997;BME280;52765;52.258;21.052;2023-01-01T05:07:11;100469.47;;;14.58;67.81
65997;BME280;52765;52.258;21.052;2023-01-01T05:09:37;100469.31;;;14.60;67.54
65997;BME280;52765;52.258;21.052;2023-01-01T05:12:02;100451.69;;;14.64;67.48
65997;BME280;52765;52.258;21.052;2023-01-01T05:14:28;100450.66;;;14.65;66.96
65997;BME280;52765;52.258;21.052;2023-01-01T05:16:53;100447.47;;;14.61;66.84
65997;BME280;52765;52.258;21.052;2023-01-01T05:19:18;100458.97;;;14.64;66.46
65997;BME280;52765;52.258;21.052;2023-01-01T05:21:44;100454.22;;;14.66;66.67
65997;BME280;52765;52.258;21.052;2023-01-01T05:24:10;100438.59;;;14.68;66.32
65997;BME280;52765;52.258;21.052;2023-01-01T05:26:38;100456.00;;;14.73;65.60
65997;BME280;52765;52.258;21.052;2023-01-01T05:29:05;100452.09;;;14.76;65.61
65997;BME280;52765;52.258;21.052;2023-01-01T05:31:33;100464.63;;;14.77;65.31
65997;BME280;52765;52.258;21.052;2023-01-01T05:33:59;100465.19;;;14.72;65.67
65997;BME280;52765;52.258;21.052;2023-01-01T05:36:27;100461.91;;;14.77;64.99
65997;BME280;52765;52.258;21.052;2023-01-01T05:38:54;100477.81;;;14.80;64.73
65997;BME280;52765;52.258;21.052;2023-01-01T05:41:21;100482.88;;;14.83;64.52
65997;BME280;52765;52.258;21.052;2023-01-01T05:43:47;100479.44;;;14.89;64.31
65997;BME280;52765;52.258;21.052;2023-01-01T05:46:15;100486.94;;;14.87;64.06
65997;BME280;52765;52.258;21.052;2023-01-01T05:48:42;100501.22;;;14.81;63.88
65997;BME280;52765;52.258;21.052;2023-01-01T05:53:34;100495.06;;;14.87;63.61
65997;BME280;52765;52.258;21.052;2023-01-01T05:56:00;100487.78;;;14.88;63.63
65997;BME280;52765;52.258;21.052;2023-01-01T05:58:28;100492.72;;;14.84;63.74
65997;BME280;52765;52.258;21.052;2023-01-01T06:00:54;100488.00;;;14.78;63.73
65997;BME280;52765;52.258;21.052;2023-01-01T06:03:20;100503.28;;;14.79;63.97
65997;BME280;52765;52.258;21.052;2023-01-01T06:05:45;100507.34;;;14.75;63.83
65997;BME280;52765;52.258;21.052;2023-01-01T06:08:12;100498.84;;;14.78;63.61
65997;BME280;52765;52.258;21.052;2023-01-01T06:10:38;100507.81;;;14.78;63.90
65997;BME280;52765;52.258;21.052;2023-01-01T06:13:04;100514.47;;;14.76;63.74
65997;BME280;52765;52.258;21.052;2023-01-01T06:15:30;100521.09;;;14.73;63.80
65997;BME280;52765;52.258;21.052;2023-01-01T06:17:56;100524.31;;;14.69;63.82
65997;BME280;52765;52.258;21.052;2023-01-01T06:20:22;100519.28;;;14.66;64.18
65997;BME280;52765;52.258;21.052;2023-01-01T06:22:47;100526.38;;;14.67;63.52
65997;BME280;52765;52.258;21.052;2023-01-01T06:25:13;100528.44;;;14.65;64.06
65997;BME280;52765;52.258;21.052;2023-01-01T06:27:38;100527.13;;;14.60;64.31
65997;BME280;52765;52.258;21.052;2023-01-01T06:30:05;100526.41;;;14.58;64.19
65997;BME280;52765;52.258;21.052;2023-01-01T06:32:31;100533.03;;;14.56;64.13
65997;BME280;52765;52.258;21.052;2023-01-01T06:34:57;100540.88;;;14.51;64.42
65997;BME280;52765;52.258;21.052;2023-01-01T06:37:22;100528.97;;;14.52;64.36
65997;BME280;52765;52.258;21.052;2023-01-01T06:39:48;100542.34;;;14.53;64.50
65997;BME280;52765;52.258;21.052;2023-01-01T06:42:13;100550.00;;;14.50;64.56
65997;BME280;52765;52.258;21.052;2023-01-01T06:44:39;100543.75;;;14.49;64.49
65997;BME280;52765;52.258;21.052;2023-01-01T06:47:04;100542.72;;;14.50;64.25
65997;BME280;52765;52.258;21.052;2023-01-01T06:49:30;100545.81;;;14.47;64.55
65997;BME280;52765;52.258;21.052;2023-01-01T06:51:55;100537.84;;;14.46;64.66
65997;BME280;52765;52.258;21.052;2023-01-01T06:54:20;100541.56;;;14.44;64.57
65997;BME280;52765;52.258;21.052;2023-01-01T06:56:46;100554.28;;;14.44;64.64
65997;BME280;52765;52.258;21.052;2023-01-01T06:59:11;100537.19;;;14.35;64.83
65997;BME280;52765;52.258;21.052;2023-01-01T07:01:37;100560.56;;;14.36;64.89
65997;BME280;52765;52.258;21.052;2023-01-01T07:04:09;100549.75;;;14.36;64.79
65997;BME280;52765;52.258;21.052;2023-01-01T07:06:35;100549.25;;;14.33;64.55
65997;BME280;52765;52.258;21.052;2023-01-01T07:09:01;100563.47;;;14.35;64.62
65997;BME280;52765;52.258;21.052;2023-01-01T07:11:27;100562.81;;;14.33;64.70
65997;BME280;52765;52.258;21.052;2023-01-01T07:13:53;100557.88;;;14.36;64.67
65997;BME280;52765;52.258;21.052;2023-01-01T07:16:19;100558.69;;;14.37;64.32
65997;BME280;52765;52.258;21.052;2023-01-01T07:18:45;100559.25;;;14.32;64.23
65997;BME280;52765;52.258;21.052;2023-01-01T07:23:59;100584.09;;;14.44;64.16
65997;BME280;52765;52.258;21.052;2023-01-01T07:26:26;100576.50;;;14.39;64.05
65997;BME280;52765;52.258;21.052;2023-01-01T07:28:52;100575.09;;;14.43;64.17
65997;BME280;52765;52.258;21.052;2023-01-01T07:31:18;100583.56;;;14.40;63.74
65997;BME280;52765;52.258;21.052;2023-01-01T07:33:43;100582.06;;;14.46;63.70
65997;BME280;52765;52.258;21.052;2023-01-01T07:36:09;100583.56;;;14.40;63.64
65997;BME280;52765;52.258;21.052;2023-01-01T07:38:35;100590.53;;;14.43;63.61
65997;BME280;52765;52.258;21.052;2023-01-01T07:41:00;100596.78;;;14.43;63.31
65997;BME280;52765;52.258;21.052;2023-01-01T07:43:26;100599.16;;;14.47;63.43
65997;BME280;52765;52.258;21.052;2023-01-01T07:45:54;100602.34;;;14.50;63.31
65997;BME280;52765;52.258;21.052;2023-01-01T07:48:20;100605.56;;;14.54;62.71
65997;BME280;52765;52.258;21.052;2023-01-01T07:50:49;100598.94;;;14.56;62.69
65997;BME280;52765;52.258;21.052;2023-01-01T07:53:15;100616.75;;;14.59;62.57
65997;BME280;52765;52.258;21.052;2023-01-01T07:55:40;100602.47;;;14.57;62.22
65997;BME280;52765;52.258;21.052;2023-01-01T07:58:06;100617.72;;;14.66;61.95
65997;BME280;52765;52.258;21.052;2023-01-01T08:00:34;100613.31;;;14.65;61.63
65997;BME280;52765;52.258;21.052;2023-01-01T08:03:00;100621.28;;;14.67;61.49
65997;BME280;52765;52.258;21.052;2023-01-01T08:05:25;100618.03;;;14.71;60.94
65997;BME280;52765;52.258;21.052;2023-01-01T08:07:50;100626.47;;;14.76;60.74
65997;BME280;52765;52.258;21.052;2023-01-01T08:10:18;100629.34;;;14.83;60.44
65997;BME280;52765;52.258;21.052;2023-01-01T08:12:44;100639.81;;;14.86;60.25
65997;BME280;52765;52.258;21.052;2023-01-01T08:15:11;100627.75;;;14.89;59.93
65997;BME280;52765;52.258;21.052;2023-01-01T08:17:37;100636.75;;;14.89;59.83
65997;BME280;52765;52.258;21.052;2023-01-01T08:20:03;100648.75;;;14.95;59.78
65997;BME280;52765;52.258;21.052;2023-01-01T08:22:29;100643.16;;;14.96;59.52
65997;BME280;52765;52.258;21.052;2023-01-01T08:24:54;100652.66;;;15.01;59.32
65997;BME280;52765;52.258;21.052;2023-01-01T08:27:20;100649.38;;;15.05;59.27
65997;BME280;52765;52.258;21.052;2023-01-01T08:29:45;100653.13;;;15.04;58.67
65997;BME280;52765;52.258;21.052;2023-01-01T08:32:11;100649.38;;;15.05;58.74
65997;BME280;52765;52.258;21.052;2023-01-01T08:34:37;100657.94;;;15.17;58.72
65997;BME280;52765;52.258;21.052;2023-01-01T08:37:02;100661.16;;;15.21;58.59
65997;BME280;52765;52.258;21.052;2023-01-01T08:39:28;100658.28;;;15.22;58.33
65997;BME280;52765;52.258;21.052;2023-01-01T08:41:54;100668.09;;;15.23;58.24
65997;BME280;52765;52.258;21.052;2023-01-01T08:44:19;100658.94;;;15.24;58.42
65997;BME280;52765;52.258;21.052;2023-01-01T08:46:45;100672.31;;;15.26;58.31
65997;BME280;52765;52.258;21.052;2023-01-01T08:49:10;100675.16;;;15.32;58.16
65997;BME280;52765;52.258;21.052;2023-01-01T08:51:36;100672.44;;;15.32;57.92
65997;BME280;52765;52.258;21.052;2023-01-01T08:54:01;100670.88;;;15.38;57.79
65997;BME280;52765;52.258;21.052;2023-01-01T08:56:26;100673.88;;;15.43;57.79
65997;BME280;52765;52.258;21.052;2023-01-01T08:58:52;100674.94;;;15.42;57.56
65997;BME280;52765;52.258;21.052;2023-01-01T09:01:17;100674.00;;;15.50;57.36
65997;BME280;52765;52.258;21.052;2023-01-01T09:03:46;100688.56;;;15.57;57.28
65997;BME280;52765;52.258;21.052;2023-01-01T09:06:11;100684.63;;;15.60;56.86
65997;BME280;52765;52.258;21.052;2023-01-01T09:08:37;100684.56;;;15.68;56.62
65997;BME280;52765;52.258;21.052;2023-01-01T09:11:02;100691.47;;;15.79;56.37
65997;BME280;52765;52.258;21.052;2023-01-01T09:13:28;100691.19;;;15.88;55.84
65997;BME280;52765;52.258;21.052;2023-01-01T09:15:55;100706.88;;;16.01;55.49
65997;BME280;52765;52.258;21.052;2023-01-01T09:18:21;100685.91;;;16.10;55.40
65997;BME280;52765;52.258;21.052;2023-01-01T09:20:46;100696.50;;;16.20;54.64
65997;BME280;52765;52.258;21.052;2023-01-01T09:23:12;100685.28;;;16.23;54.29
65997;BME280;52765;52.258;21.052;2023-01-01T09:25:38;100704.50;;;16.36;54.16
65997;BME280;52765;52.258;21.052;2023-01-01T09:28:06;100688.09;;;16.44;53.90
65997;BME280;52765;52.258;21.052;2023-01-01T09:30:32;100685.03;;;16.48;53.61
65997;BME280;52765;52.258;21.052;2023-01-01T09:32:58;100686.03;;;16.46;53.14
65997;BME280;52765;52.258;21.052;2023-01-01T09:35:23;100683.97;;;16.49;52.94
65997;BME280;52765;52.258;21.052;2023-01-01T09:37:49;100687.19;;;16.52;52.93
65997;BME280;52765;52.258;21.052;2023-01-01T09:40:27;100696.44;;;16.58;52.70
65997;BME280;52765;52.258;21.052;2023-01-01T09:43:04;100683.03;;;16.56;52.41
65997;BME280;52765;52.258;21.052;2023-01-01T09:45:35;100690.44;;;16.62;52.54
65997;BME280;52765;52.258;21.052;2023-01-01T09:48:06;100681.56;;;16.69;52.25
65997;BME280;52765;52.258;21.052;2023-01-01T09:50:42;100683.03;;;16.71;52.08
65997;BME280;52765;52.258;21.052;2023-01-01T09:55:57;100675.72;;;16.87;51.70
65997;BME280;52765;52.258;21.052;2023-01-01T09:58:29;100691.03;;;16.88;51.39
65997;BME280;52765;52.258;21.052;2023-01-01T10:01:01;100689.78;;;16.90;51.19
65997;BME280;52765;52.258;21.052;2023-01-01T10:06:41;100681.13;;;17.01;50.80
65997;BME280;52765;52.258;21.052;2023-01-01T10:09:17;100683.66;;;17.03;50.89
65997;BME280;52765;52.258;21.052;2023-01-01T10:11:59;100666.97;;;17.06;50.99
65997;BME280;52765;52.258;21.052;2023-01-01T10:14:44;100682.53;;;17.12;50.55
65997;BME280;52765;52.258;21.052;2023-01-01T10:17:29;100675.66;;;17.16;50.32
65997;BME280;52765;52.258;21.052;2023-01-01T10:20:01;100685.31;;;17.19;50.25
65997;BME280;52765;52.258;21.052;2023-01-01T10:22:37;100667.56;;;17.23;49.75
65997;BME280;52765;52.258;21.052;2023-01-01T10:25:36;100680.59;;;17.28;49.57
65997;BME280;52765;52.258;21.052;2023-01-01T10:28:09;100670.53;;;17.28;49.43
65997;BME280;52765;52.258;21.052;2023-01-01T10:30:36;100667.81;;;17.28;49.20
65997;BME280;52765;52.258;21.052;2023-01-01T10:33:09;100662.44;;;17.35;48.84
65997;BME280;52765;52.258;21.052;2023-01-01T10:35:50;100665.84;;;17.37;48.46
65997;BME280;52765;52.258;21.052;2023-01-01T10:38:25;100649.56;;;17.44;48.39
65997;BME280;52765;52.258;21.052;2023-01-01T10:40:52;100655.22;;;17.42;47.94
65997;BME280;52765;52.258;21.052;2023-01-01T10:43:20;100652.28;;;17.44;47.88
65997;BME280;52765;52.258;21.052;2023-01-01T10:45:53;100655.53;;;17.54;47.77
65997;BME280;52765;52.258;21.052;2023-01-01T10:48:26;100657.66;;;17.59;47.06
65997;BME280;52765;52.258;21.052;2023-01-01T10:50:58;100643.88;;;17.67;46.62
65997;BME280;52765;52.258;21.052;2023-01-01T10:53:31;100654.63;;;17.75;46.41
65997;BME280;52765;52.258;21.052;2023-01-01T10:58:50;100636.75;;;17.87;45.84
65997;BME280;52765;52.258;21.052;2023-01-01T11:03:59;100637.75;;;17.86;45.77
65997;BME280;52765;52.258;21.052;2023-01-01T11:06:35;100641.19;;;17.95;46.04
65997;BME280;52765;52.258;21.052;2023-01-01T11:09:03;100641.41;;;17.93;45.72
65997;BME280;52765;52.258;21.052;2023-01-01T11:11:47;100637.88;;;18.00;45.48
65997;BME280;52765;52.258;21.052;2023-01-01T11:14:21;100638.91;;;17.92;45.48
65997;BME280;52765;52.258;21.052;2023-01-01T11:16:49;100639.78;;;17.99;45.19
65997;BME280;52765;52.258;21.052;2023-01-01T11:19:42;100643.22;;;18.15;45.33
65997;BME280;52765;52.258;21.052;2023-01-01T11:25:01;100631.38;;;18.29;44.47
65997;BME280;52765;52.258;21.052;2023-01-01T11:27:27;100639.81;;;18.34;44.60
65997;BME280;52765;52.258;21.052;2023-01-01T11:30:17;100636.13;;;18.48;44.28
65997;BME280;52765;52.258;21.052;2023-01-01T11:32:43;100629.16;;;18.46;43.78
65997;BME280;52765;52.258;21.052;2023-01-01T11:35:18;100624.94;;;18.43;43.90
65997;BME280;52765;52.258;21.052;2023-01-01T11:37:45;100639.41;;;18.37;43.55
65997;BME280;52765;52.258;21.052;2023-01-01T11:40:28;100628.31;;;18.45;43.27
65997;BME280;52765;52.258;21.052;2023-01-01T11:42:59;100632.25;;;18.36;43.39
65997;BME280;52765;52.258;21.052;2023-01-01T11:45:41;100631.22;;;18.37;43.48
65997;BME280;52765;52.258;21.052;2023-01-01T11:48:28;100628.69;;;18.36;43.35
65997;BME280;52765;52.258;21.052;2023-01-01T11:51:02;100619.25;;;18.38;43.37
65997;BME280;52765;52.258;21.052;2023-01-01T11:53:33;100645.69;;;18.38;43.45
65997;BME280;52765;52.258;21.052;2023-01-01T11:56:04;100637.69;;;18.36;43.78
65997;BME280;52765;52.258;21.052;2023-01-01T12:03:50;100634.38;;;18.41;43.38
65997;BME280;52765;52.258;21.052;2023-01-01T12:06:24;100648.84;;;18.41;43.68
65997;BME280;52765;52.258;21.052;2023-01-01T12:08:55;100647.00;;;18.42;43.74
65997;BME280;52765;52.258;21.052;2023-01-01T12:11:43;100658.13;;;18.47;43.54
65997;BME280;52765;52.258;21.052;2023-01-01T12:14:20;100654.56;;;18.53;43.49
65997;BME280;52765;52.258;21.052;2023-01-01T12:19:25;100664.66;;;18.53;43.43
65997;BME280;52765;52.258;21.052;2023-01-01T12:21:56;100656.91;;;18.56;43.64
65997;BME280;52765;52.258;21.052;2023-01-01T12:24:25;100644.13;;;18.63;43.83
65997;BME280;52765;52.258;21.052;2023-01-01T12:27:08;100636.19;;;18.62;44.17
65997;BME280;52765;52.258;21.052;2023-01-01T12:29:46;100644.31;;;18.55;44.27
65997;BME280;52765;52.258;21.052;2023-01-01T12:33:07;100650.78;;;18.47;44.24
65997;BME280;52765;52.258;21.052;2023-01-01T12:35:50;100644.66;;;18.39;44.84
65997;BME280;52765;52.258;21.052;2023-01-01T12:38:23;100648.19;;;18.33;44.85
65997;BME280;52765;52.258;21.052;2023-01-01T12:43:51;100650.59;;;18.14;45.28
65997;BME280;52765;52.258;21.052;2023-01-01T12:46:40;100658.53;;;18.09;45.62
65997;BME280;52765;52.258;21.052;2023-01-01T12:49:35;100654.69;;;18.03;45.90
65997;BME280;52765;52.258;21.052;2023-01-01T12:52:16;100660.34;;;18.02;45.89
65997;BME280;52765;52.258;21.052;2023-01-01T12:57:50;100668.13;;;17.83;46.27
65997;BME280;52765;52.258;21.052;2023-01-01T13:00:19;100675.41;;;17.76;46.38
65997;BME280;52765;52.258;21.052;2023-01-01T13:02:59;100662.56;;;17.70;46.60
65997;BME280;52765;52.258;21.052;2023-01-01T13:05:44;100666.53;;;17.67;46.83
65997;BME280;52765;52.258;21.052;2023-01-01T13:08:12;100664.78;;;17.60;46.69
65997;BME280;52765;52.258;21.052;2023-01-01T13:10:40;100678.41;;;17.60;46.99
65997;BME280;52765;52.258;21.052;2023-01-01T13:13:07;100672.69;;;17.54;47.49
65997;BME280;52765;52.258;21.052;2023-01-01T13:15:45;100686.97;;;17.56;47.49
65997;BME280;52765;52.258;21.052;2023-01-01T13:20:42;100681.63;;;17.48;47.50
65997;BME280;52765;52.258;21.052;2023-01-01T13:45:31;100685.81;;;17.08;48.95
65997;BME280;52765;52.258;21.052;2023-01-01T13:48:35;100699.63;;;17.06;49.06
65997;BME280;52765;52.258;21.052;2023-01-01T13:59:46;100702.34;;;16.76;49.87
65997;BME280;52765;52.258;21.052;2023-01-01T14:04:49;100720.84;;;16.66;50.21
65997;BME280;52765;52.258;21.052;2023-01-01T14:15:31;100750.00;;;16.57;50.69
65997;BME280;52765;52.258;21.052;2023-01-01T14:17:59;100742.78;;;16.50;51.12
65997;BME280;52765;52.258;21.052;2023-01-01T14:20:32;100760.09;;;16.49;51.13
65997;BME280;52765;52.258;21.052;2023-01-01T14:23:08;100772.41;;;16.44;51.38
65997;BME280;52765;52.258;21.052;2023-01-01T14:25:34;100765.66;;;16.40;51.49
65997;BME280;52765;52.258;21.052;2023-01-01T14:28:00;100779.03;;;16.42;51.47
65997;BME280;52765;52.258;21.052;2023-01-01T14:30:29;100781.84;;;16.34;51.85
65997;BME280;52765;52.258;21.052;2023-01-01T14:32:57;100777.81;;;16.30;52.06
65997;BME280;52765;52.258;21.052;2023-01-01T14:35:23;100795.13;;;16.28;52.18